createdAt,value
2022-10-22T00:00:48.856Z,21.70
2022-10-22T00:03:15.969Z,21.90
2022-10-22T00:05:43.063Z,21.53
2022-10-22T00:08:09.985Z,22.67
2022-10-22T00:10:37.681Z,21.77
2022-10-22T00:13:04.638Z,22.03
2022-10-22T00:15:31.480Z,20.13
2022-10-22T00:17:58.710Z,20.43
2022-10-22T00:20:25.716Z,19.87
2022-10-22T00:25:19.372Z,19.80
2022-10-22T00:27:46.254Z,20.00
2022-10-22T00:30:13.297Z,20.57
2022-10-22T00:32:40.693Z,19.03
2022-10-22T00:35:08.623Z,18.27
2022-10-22T00:37:35.498Z,19.40
2022-10-22T00:40:02.653Z,23.10
2022-10-22T00:42:29.910Z,21.80
2022-10-22T00:45:20.883Z,19.73
2022-10-22T00:47:53.736Z,20.77
2022-10-22T00:50:26.627Z,19.03
2022-10-22T00:52:54.724Z,19.47
2022-10-22T00:55:23.814Z,21.60
2022-10-22T00:57:50.738Z,18.37
2022-10-22T01:00:18.131Z,21.10
2022-10-22T01:02:45.115Z,23.80
2022-10-22T01:05:12.410Z,22.77
2022-10-22T01:07:43.596Z,22.80
2022-10-22T01:10:21.207Z,21.97
2022-10-22T01:12:54.690Z,23.13
2022-10-22T01:15:28.567Z,21.87
2022-10-22T01:18:00.851Z,19.90
2022-10-22T01:21:00.464Z,23.20
2022-10-22T01:24:00.249Z,21.53
2022-10-22T01:26:37.720Z,21.63
2022-10-22T01:29:11.454Z,21.77
2022-10-22T01:31:43.747Z,21.37
2022-10-22T01:34:13.390Z,20.87
2022-10-22T01:36:40.553Z,21.37
2022-10-22T01:39:08.340Z,20.30
2022-10-22T01:41:35.478Z,20.73
2022-10-22T01:44:02.401Z,21.07
2022-10-22T01:46:30.013Z,21.17
2022-10-22T01:49:17.085Z,22.17
2022-10-22T01:51:56.618Z,20.10
2022-10-22T01:54:31.382Z,20.73
2022-10-22T01:57:08.729Z,20.50
2022-10-22T01:59:48.308Z,20.20
2022-10-22T02:02:25.941Z,19.37
2022-10-22T02:04:58.266Z,18.93
2022-10-22T02:07:30.632Z,20.93
2022-10-22T02:09:59.290Z,19.90
2022-10-22T02:12:27.414Z,20.13
2022-10-22T02:14:56.698Z,19.33
2022-10-22T02:17:27.351Z,21.50
2022-10-22T02:19:56.994Z,19.10
2022-10-22T02:22:25.754Z,22.03
2022-10-22T02:24:52.665Z,19.73
2022-10-22T02:27:26.867Z,20.60
2022-10-22T02:30:01.424Z,19.47
2022-10-22T02:32:34.042Z,20.00
2022-10-22T02:35:01.241Z,20.60
2022-10-22T02:37:28.895Z,20.60
2022-10-22T02:39:55.970Z,19.63
2022-10-22T02:42:25.212Z,20.30
2022-10-22T02:44:53.701Z,20.07
2022-10-22T02:47:20.880Z,20.37
2022-10-22T02:49:48.203Z,18.97
2022-10-22T02:52:15.163Z,18.03
2022-10-22T02:54:42.057Z,19.53
2022-10-22T02:57:10.418Z,19.10
2022-10-22T02:59:37.281Z,20.93
2022-10-22T03:02:04.228Z,19.43
2022-10-22T03:04:31.180Z,19.27
2022-10-22T03:06:58.470Z,18.40
2022-10-22T03:09:27.566Z,17.77
2022-10-22T03:11:54.461Z,18.37
2022-10-22T03:14:22.045Z,17.60
2022-10-22T03:16:48.890Z,18.60
2022-10-22T03:19:15.725Z,19.47
2022-10-22T03:21:45.467Z,19.73
2022-10-22T03:24:17.808Z,18.43
2022-10-22T03:26:46.674Z,21.27
2022-10-22T03:29:15.160Z,21.30
2022-10-22T03:31:42.399Z,19.50
2022-10-22T03:34:11.198Z,19.90
2022-10-22T03:36:38.270Z,21.17
2022-10-22T03:39:05.637Z,21.60
2022-10-22T03:41:33.539Z,20.03
2022-10-22T03:44:00.622Z,20.50
2022-10-22T03:46:27.607Z,20.00
2022-10-22T03:48:54.507Z,17.07
2022-10-22T03:51:21.343Z,17.83
2022-10-22T03:53:48.305Z,17.47
2022-10-22T03:56:15.294Z,18.93
2022-10-22T03:58:42.534Z,19.27
2022-10-22T04:01:11.414Z,19.40
2022-10-22T04:03:38.547Z,20.83
2022-10-22T04:06:07.287Z,19.67
2022-10-22T04:08:34.482Z,18.07
2022-10-22T04:11:03.626Z,18.67
2022-10-22T04:13:30.496Z,16.13
2022-10-22T04:16:06.859Z,18.30
2022-10-22T04:18:33.708Z,16.17
2022-10-22T04:21:00.547Z,16.80
2022-10-22T04:23:27.435Z,17.47
2022-10-22T04:25:57.805Z,16.93
2022-10-22T04:28:24.736Z,16.43
2022-10-22T04:30:51.805Z,16.97
2022-10-22T04:33:19.604Z,15.97
2022-10-22T04:35:46.530Z,13.53
2022-10-22T04:38:13.671Z,21.53
2022-10-22T04:40:40.485Z,15.53
2022-10-22T04:43:07.362Z,17.30
2022-10-22T04:45:34.391Z,21.83
2022-10-22T04:48:01.226Z,20.97
2022-10-22T04:50:29.243Z,20.77
2022-10-22T04:52:56.055Z,21.57
2022-10-22T04:55:22.950Z,19.77
2022-10-22T04:57:49.807Z,20.37
2022-10-22T05:00:16.712Z,18.30
2022-10-22T05:02:44.065Z,19.90
2022-10-22T05:05:11.266Z,20.27
2022-10-22T05:07:39.012Z,20.07
2022-10-22T05:10:08.096Z,18.80
2022-10-22T05:12:35.204Z,20.03
2022-10-22T05:15:02.217Z,20.63
2022-10-22T05:17:29.016Z,18.77
2022-10-22T05:19:55.827Z,18.30
2022-10-22T05:22:22.697Z,16.43
2022-10-22T05:24:50.223Z,19.37
2022-10-22T05:29:43.924Z,19.00
2022-10-22T05:32:10.758Z,18.33
2022-10-22T05:34:37.670Z,18.67
2022-10-22T05:37:04.767Z,19.13
2022-10-22T05:39:31.627Z,19.90
2022-10-22T05:41:58.829Z,18.07
2022-10-22T05:44:25.662Z,16.40
2022-10-22T05:46:52.507Z,17.67
2022-10-22T05:49:19.353Z,18.30
2022-10-22T05:51:46.401Z,18.87
2022-10-22T05:54:18.036Z,17.73
2022-10-22T05:56:44.903Z,19.03
2022-10-22T05:59:12.343Z,18.97
2022-10-22T06:01:40.204Z,17.03
2022-10-22T06:04:10.547Z,17.30
2022-10-22T06:06:39.594Z,17.47
2022-10-22T06:09:13.142Z,16.97
2022-10-22T06:11:40.034Z,19.77
2022-10-22T06:14:06.984Z,19.97
2022-10-22T06:16:34.503Z,19.27
2022-10-22T06:19:02.268Z,21.90
2022-10-22T06:21:30.279Z,21.30
2022-10-22T06:23:57.432Z,19.90
2022-10-22T06:26:24.563Z,20.47
2022-10-22T06:28:53.747Z,19.83
2022-10-22T06:31:20.624Z,17.40
2022-10-22T06:33:47.831Z,18.70
2022-10-22T06:36:15.848Z,17.67
2022-10-22T06:38:43.426Z,15.63
2022-10-22T06:41:11.952Z,20.33
2022-10-22T06:43:38.838Z,19.43
2022-10-22T06:46:09.056Z,22.23
2022-10-22T06:48:37.211Z,22.37
2022-10-22T06:51:06.657Z,21.93
2022-10-22T06:53:33.591Z,22.87
2022-10-22T06:56:04.800Z,21.23
2022-10-22T06:58:31.864Z,22.40
2022-10-22T07:01:02.640Z,22.37
2022-10-22T07:03:29.546Z,23.30
2022-10-22T07:05:59.480Z,22.30
2022-10-22T07:08:26.763Z,24.67
2022-10-22T07:10:58.053Z,23.90
2022-10-22T07:13:24.957Z,23.83
2022-10-22T07:15:55.396Z,23.23
2022-10-22T07:18:22.553Z,22.27
2022-10-22T07:20:49.739Z,21.90
2022-10-22T07:23:17.286Z,22.77
2022-10-22T07:25:44.751Z,22.67
2022-10-22T07:28:12.037Z,20.37
2022-10-22T07:30:39.368Z,21.80
2022-10-22T07:33:06.778Z,20.20
2022-10-22T07:35:33.893Z,20.97
2022-10-22T07:38:00.940Z,21.53
2022-10-22T07:40:27.800Z,21.40
2022-10-22T07:42:55.877Z,19.87
2022-10-22T07:45:23.212Z,20.07
2022-10-22T07:47:50.095Z,19.73
2022-10-22T07:50:18.339Z,17.10
2022-10-22T07:52:46.310Z,15.90
2022-10-22T07:55:13.237Z,15.23
2022-10-22T07:57:40.152Z,14.53
2022-10-22T08:00:09.559Z,13.40
2022-10-22T08:02:36.463Z,14.10
2022-10-22T08:05:03.347Z,13.63
2022-10-22T08:07:30.149Z,13.13
2022-10-22T08:09:57.037Z,14.17
2022-10-22T08:12:23.874Z,13.17
2022-10-22T08:14:50.752Z,13.97
2022-10-22T08:17:18.101Z,14.00
2022-10-22T08:19:44.950Z,14.50
2022-10-22T08:22:11.929Z,14.17
2022-10-22T08:24:38.994Z,14.23
2022-10-22T08:27:05.864Z,13.70
2022-10-22T08:29:32.893Z,13.60
2022-10-22T08:32:02.049Z,13.17
2022-10-22T08:34:29.788Z,12.87
2022-10-22T08:36:56.770Z,11.77
2022-10-22T08:39:23.672Z,13.13
2022-10-22T08:41:55.946Z,9.70
2022-10-22T08:44:39.586Z,12.03
2022-10-22T08:47:28.595Z,11.83
2022-10-22T08:49:57.623Z,11.73
2022-10-22T08:52:24.633Z,12.17
2022-10-22T08:54:53.534Z,12.37
2022-10-22T08:57:36.954Z,11.97
2022-10-22T09:00:06.494Z,11.63
2022-10-22T09:02:42.095Z,12.30
2022-10-22T09:05:22.205Z,11.03
2022-10-22T09:07:49.783Z,11.40
2022-10-22T09:10:17.341Z,11.50
2022-10-22T09:12:44.932Z,11.63
2022-10-22T09:15:14.708Z,11.67
2022-10-22T09:17:53.737Z,11.13
2022-10-22T09:20:27.986Z,11.23
2022-10-22T09:23:01.071Z,11.33
2022-10-22T09:25:30.450Z,11.37
2022-10-22T09:27:57.968Z,11.73
2022-10-22T09:30:27.326Z,11.30
2022-10-22T09:32:59.871Z,11.50
2022-10-22T09:35:27.798Z,10.27
2022-10-22T09:37:56.676Z,10.37
2022-10-22T09:40:24.236Z,11.40
2022-10-22T09:42:51.802Z,10.63
2022-10-22T09:45:22.218Z,10.07
2022-10-22T09:48:01.634Z,10.40
2022-10-22T09:50:40.865Z,10.43
2022-10-22T09:53:13.423Z,10.17
2022-10-22T09:55:41.169Z,11.07
2022-10-22T09:58:12.032Z,10.37
2022-10-22T10:00:39.038Z,9.67
2022-10-22T10:03:09.169Z,9.60
2022-10-22T10:05:36.945Z,9.60
2022-10-22T10:08:13.574Z,8.63
2022-10-22T10:10:47.025Z,9.07
2022-10-22T10:13:23.126Z,8.80
2022-10-22T10:15:55.839Z,9.37
2022-10-22T10:18:41.524Z,9.10
2022-10-22T10:23:48.212Z,10.07
2022-10-22T10:26:21.883Z,9.40
2022-10-22T10:28:59.629Z,9.90
2022-10-22T10:31:38.249Z,9.47
2022-10-22T10:34:12.927Z,9.50
2022-10-22T10:36:52.307Z,9.20
2022-10-22T10:39:25.360Z,9.73
2022-10-22T10:41:58.672Z,10.60
2022-10-22T10:44:52.321Z,9.70
2022-10-22T10:47:39.071Z,9.23
2022-10-22T10:50:20.585Z,9.70
2022-10-22T10:52:58.962Z,10.03
2022-10-22T10:55:32.072Z,9.60
2022-10-22T10:58:13.328Z,10.00
2022-10-22T11:00:47.404Z,10.03
2022-10-22T11:03:48.879Z,10.07
2022-10-22T11:06:20.486Z,8.73
2022-10-22T11:08:57.511Z,9.00
2022-10-22T11:11:32.624Z,8.80
2022-10-22T11:14:06.060Z,8.43
2022-10-22T11:16:37.096Z,9.03
2022-10-22T11:19:11.278Z,9.13
2022-10-22T11:21:44.300Z,9.80
2022-10-22T11:24:20.553Z,8.57
2022-10-22T11:26:52.611Z,8.57
2022-10-22T11:29:24.654Z,8.77
2022-10-22T11:31:55.341Z,10.33
2022-10-22T11:34:39.398Z,10.27
2022-10-22T11:37:06.910Z,10.10
2022-10-22T12:10:20.276Z,9.43
2022-10-22T12:12:55.382Z,8.07
2022-10-22T12:15:26.316Z,8.77
2022-10-22T12:17:59.227Z,8.23
2022-10-22T12:37:43.557Z,7.07
2022-10-22T12:40:18.832Z,6.87
2022-10-22T12:42:51.044Z,6.70
2022-10-22T12:45:18.601Z,6.47
2022-10-22T12:47:49.108Z,6.93
2022-10-22T12:50:21.198Z,6.00
2022-10-22T12:52:49.166Z,6.07
2022-10-22T12:55:17.325Z,6.67
2022-10-22T12:57:47.008Z,5.83
2022-10-22T13:00:23.120Z,6.40
2022-10-22T13:02:49.998Z,6.00
2022-10-22T13:05:22.847Z,6.07
2022-10-22T13:07:52.205Z,5.30
2022-10-22T13:10:23.805Z,4.90
2022-10-22T13:12:54.049Z,4.90
2022-10-22T13:15:35.734Z,18.53
2022-10-22T13:18:05.257Z,4.43
2022-10-22T13:20:32.680Z,5.40
2022-10-22T13:23:00.527Z,6.00
2022-10-22T13:25:29.281Z,3.57
2022-10-22T13:27:58.093Z,2.90
2022-10-22T13:30:27.212Z,2.70
2022-10-22T13:32:55.881Z,2.87
2022-10-22T13:35:27.390Z,3.00
2022-10-22T13:37:54.298Z,3.10
2022-10-22T13:40:21.210Z,2.77
2022-10-22T13:42:47.893Z,3.10
2022-10-22T13:45:14.892Z,2.73
2022-10-22T13:47:42.876Z,2.93
2022-10-22T13:50:14.895Z,2.67
2022-10-22T13:52:44.409Z,2.40
2022-10-22T13:55:18.225Z,2.53
2022-10-22T13:57:45.219Z,2.97
2022-10-22T14:00:14.720Z,2.50
2022-10-22T14:02:42.028Z,2.47
2022-10-22T14:05:10.630Z,2.40
2022-10-22T14:07:38.217Z,1.90
2022-10-22T14:10:14.399Z,2.30
2022-10-22T14:12:41.274Z,2.33
2022-10-22T14:15:09.836Z,2.20
2022-10-22T14:17:36.739Z,2.27
2022-10-22T14:20:03.874Z,2.50
2022-10-22T14:22:31.128Z,6.60
2022-10-22T14:24:58.146Z,10.00
2022-10-22T14:27:24.964Z,4.03
2022-10-22T14:29:53.217Z,4.77
2022-10-22T14:32:22.994Z,2.33
2022-10-22T14:34:49.869Z,2.90
2022-10-22T14:37:18.270Z,2.80
2022-10-22T14:39:50.966Z,2.70
2022-10-22T14:42:18.839Z,2.60
2022-10-22T14:44:45.740Z,2.60
2022-10-22T14:47:12.611Z,2.43
